createdAt,value
2017-12-10T00:00:41.146Z,6.73
2017-12-10T00:03:09.492Z,7.37
2017-12-10T00:05:37.838Z,6.83
2017-12-10T00:08:06.163Z,6.70
2017-12-10T00:10:34.518Z,7.80
2017-12-10T00:13:03.007Z,7.57
2017-12-10T00:15:31.508Z,7.87
2017-12-10T00:17:59.930Z,7.57
2017-12-10T00:20:28.330Z,8.10
2017-12-10T00:22:57.448Z,8.63
2017-12-10T00:25:25.840Z,9.00
2017-12-10T00:27:54.164Z,8.90
2017-12-10T00:30:22.507Z,7.90
2017-12-10T00:32:51.608Z,8.33
2017-12-10T00:35:19.968Z,6.90
2017-12-10T00:37:48.296Z,6.77
2017-12-10T00:40:16.629Z,6.67
2017-12-10T00:42:44.994Z,7.60
2017-12-10T00:45:13.335Z,7.37
2017-12-10T00:47:41.872Z,7.20
2017-12-10T00:50:10.217Z,6.57
2017-12-10T00:52:39.361Z,6.70
2017-12-10T00:55:07.728Z,6.73
2017-12-10T00:57:36.062Z,7.10
2017-12-10T01:00:05.202Z,7.40
2017-12-10T01:02:33.536Z,7.60
2017-12-10T01:05:02.667Z,7.13
2017-12-10T01:07:31.052Z,6.97
2017-12-10T01:09:59.386Z,6.77
2017-12-10T01:12:27.733Z,7.13
2017-12-10T01:14:56.076Z,7.20
2017-12-10T01:17:24.503Z,7.57
2017-12-10T01:19:52.882Z,7.27
2017-12-10T01:22:21.194Z,6.53
2017-12-10T01:24:50.379Z,6.53
2017-12-10T01:27:18.724Z,6.20
2017-12-10T01:29:47.090Z,5.90
2017-12-10T01:32:15.428Z,6.10
2017-12-10T01:34:44.541Z,5.97
2017-12-10T01:37:12.884Z,6.27
2017-12-10T01:39:41.220Z,5.60
2017-12-10T01:42:09.565Z,5.80
2017-12-10T01:44:38.666Z,5.30
2017-12-10T01:47:06.995Z,5.17
2017-12-10T01:49:35.352Z,5.40
2017-12-10T01:52:03.691Z,5.63
2017-12-10T01:54:32.815Z,4.93
2017-12-10T01:57:01.153Z,5.13
2017-12-10T01:59:29.599Z,5.47
2017-12-10T02:01:58.006Z,5.20
2017-12-10T02:04:26.342Z,5.60
2017-12-10T02:06:54.717Z,6.23
2017-12-10T02:09:23.072Z,6.50
2017-12-10T02:11:51.416Z,6.37
2017-12-10T02:14:20.403Z,5.93
2017-12-10T02:16:48.728Z,6.33
2017-12-10T02:19:17.068Z,5.80
2017-12-10T02:21:45.396Z,6.80
2017-12-10T02:24:13.781Z,6.33
2017-12-10T02:26:42.117Z,6.83
2017-12-10T02:29:10.619Z,5.60
2017-12-10T02:31:39.012Z,6.03
2017-12-10T02:34:07.347Z,5.57
2017-12-10T02:36:35.719Z,4.73
2017-12-10T02:39:04.043Z,5.73
2017-12-10T02:41:32.366Z,5.33
2017-12-10T02:44:00.708Z,5.17
2017-12-10T02:46:29.079Z,5.23
2017-12-10T02:48:57.668Z,5.27
2017-12-10T02:51:25.983Z,4.77
2017-12-10T02:53:54.309Z,5.23
2017-12-10T02:56:23.444Z,5.50
2017-12-10T02:58:51.752Z,5.20
2017-12-10T03:01:20.120Z,4.80
2017-12-10T03:03:48.467Z,4.40
2017-12-10T03:06:16.948Z,5.00
2017-12-10T03:08:45.295Z,4.77
2017-12-10T03:11:15.227Z,4.53
2017-12-10T03:13:43.572Z,4.93
2017-12-10T03:16:12.011Z,4.63
2017-12-10T03:18:45.204Z,4.80
2017-12-10T03:21:13.519Z,4.63
2017-12-10T03:23:41.863Z,4.80
2017-12-10T03:26:10.190Z,5.17
2017-12-10T03:28:39.531Z,4.40
2017-12-10T03:31:07.901Z,4.50
2017-12-10T03:33:36.230Z,4.50
2017-12-10T03:36:04.577Z,4.80
2017-12-10T03:38:32.909Z,4.40
2017-12-10T03:41:02.004Z,4.33
2017-12-10T03:43:30.348Z,4.63
2017-12-10T03:45:58.689Z,4.23
2017-12-10T03:48:27.048Z,4.60
2017-12-10T03:50:55.596Z,4.10
2017-12-10T03:53:23.918Z,4.33
2017-12-10T03:55:52.272Z,4.77
2017-12-10T03:58:21.404Z,4.07
2017-12-10T04:00:49.740Z,3.90
2017-12-10T04:03:18.063Z,3.73
2017-12-10T04:05:46.404Z,4.90
2017-12-10T04:08:14.746Z,4.40
2017-12-10T04:10:43.083Z,4.00
2017-12-10T04:13:11.637Z,3.80
2017-12-10T04:15:39.965Z,4.30
2017-12-10T04:18:08.327Z,3.80
2017-12-10T04:20:36.665Z,3.57
2017-12-10T04:23:04.983Z,3.77
2017-12-10T04:25:33.457Z,4.03
2017-12-10T04:28:02.615Z,3.60
2017-12-10T04:30:30.951Z,3.43
2017-12-10T04:32:59.297Z,3.57
2017-12-10T04:35:29.028Z,4.30
2017-12-10T04:37:57.375Z,4.10
2017-12-10T04:40:25.752Z,3.40
2017-12-10T04:42:54.800Z,3.70
2017-12-10T04:45:23.150Z,3.30
2017-12-10T04:47:52.245Z,3.17
2017-12-10T04:50:21.384Z,3.17
2017-12-10T04:52:49.696Z,3.83
2017-12-10T04:55:18.028Z,3.47
2017-12-10T04:57:46.363Z,3.53
2017-12-10T05:00:15.464Z,3.47
2017-12-10T05:02:44.582Z,3.77
2017-12-10T05:05:13.664Z,3.30
2017-12-10T05:07:42.755Z,3.67
2017-12-10T05:10:12.088Z,3.20
2017-12-10T05:12:40.424Z,3.27
2017-12-10T05:15:08.767Z,3.33
2017-12-10T05:17:37.104Z,3.20
2017-12-10T05:20:06.308Z,3.30
2017-12-10T05:22:34.702Z,3.90
2017-12-10T05:25:03.080Z,3.87
2017-12-10T05:27:31.420Z,3.37
2017-12-10T05:30:00.520Z,3.43
2017-12-10T05:32:28.880Z,3.67
2017-12-10T05:34:57.228Z,3.57
2017-12-10T05:37:25.696Z,3.60
2017-12-10T05:39:54.085Z,3.50
2017-12-10T05:42:22.408Z,3.53
2017-12-10T05:44:50.758Z,3.80
2017-12-10T05:47:19.090Z,3.67
2017-12-10T05:49:47.460Z,3.43
2017-12-10T05:52:16.560Z,3.70
2017-12-10T05:54:45.655Z,3.60
2017-12-10T05:57:14.768Z,3.30
2017-12-10T05:59:43.097Z,3.40
2017-12-10T06:02:11.419Z,3.50
2017-12-10T06:04:39.823Z,3.07
2017-12-10T06:07:08.240Z,3.47
2017-12-10T06:09:36.635Z,3.33
2017-12-10T06:12:05.723Z,3.87
2017-12-10T06:14:34.051Z,3.63
2017-12-10T06:17:02.418Z,3.67
2017-12-10T06:19:30.748Z,3.03
2017-12-10T06:21:59.196Z,4.13
2017-12-10T06:24:27.523Z,3.83
2017-12-10T06:26:56.675Z,3.83
2017-12-10T06:29:24.970Z,3.77
2017-12-10T06:31:53.316Z,4.20
2017-12-10T06:34:21.773Z,3.70
2017-12-10T06:36:50.883Z,3.33
2017-12-10T06:39:19.983Z,3.20
2017-12-10T06:41:48.325Z,3.17
2017-12-10T06:44:16.633Z,3.77
2017-12-10T06:46:45.692Z,3.07
2017-12-10T06:49:14.015Z,3.57
2017-12-10T06:51:42.367Z,3.30
2017-12-10T06:54:11.463Z,3.03
2017-12-10T06:56:40.619Z,2.97
2017-12-10T06:59:09.662Z,2.80
2017-12-10T07:01:38.743Z,2.50
2017-12-10T07:04:07.900Z,2.87
2017-12-10T07:06:36.221Z,3.53
2017-12-10T07:09:04.739Z,2.87
2017-12-10T07:11:33.066Z,2.90
2017-12-10T07:14:01.499Z,3.00
2017-12-10T07:16:29.845Z,2.70
2017-12-10T07:18:58.928Z,2.60
2017-12-10T07:21:27.261Z,3.10
2017-12-10T07:23:55.620Z,2.43
2017-12-10T07:26:23.955Z,2.83
2017-12-10T07:28:52.426Z,2.83
2017-12-10T07:31:20.754Z,2.47
2017-12-10T07:33:49.095Z,2.70
2017-12-10T07:36:17.439Z,3.17
2017-12-10T07:38:45.809Z,3.33
2017-12-10T07:41:14.176Z,3.40
2017-12-10T07:43:42.512Z,3.60
2017-12-10T07:46:10.944Z,3.80
2017-12-10T07:48:39.309Z,3.57
2017-12-10T07:51:07.636Z,3.37
2017-12-10T07:53:35.973Z,3.90
2017-12-10T07:56:04.303Z,3.43
2017-12-10T07:58:32.643Z,3.63
2017-12-10T08:01:01.021Z,4.03
2017-12-10T08:03:29.352Z,3.63
2017-12-10T08:05:58.471Z,3.63
2017-12-10T08:08:26.799Z,3.63
2017-12-10T08:10:55.163Z,3.50
2017-12-10T08:13:23.544Z,3.40
2017-12-10T08:15:51.898Z,3.20
2017-12-10T08:18:20.240Z,3.00
2017-12-10T08:20:48.600Z,2.63
2017-12-10T08:23:16.961Z,3.63
2017-12-10T08:25:45.292Z,3.90
2017-12-10T08:28:13.614Z,3.20
2017-12-10T08:30:41.952Z,3.50
2017-12-10T08:33:10.952Z,3.40
2017-12-10T08:35:39.331Z,3.33
2017-12-10T08:38:07.666Z,3.00
2017-12-10T08:40:36.114Z,2.83
2017-12-10T08:43:04.452Z,2.97
2017-12-10T08:45:33.546Z,3.17
2017-12-10T08:48:02.648Z,3.23
2017-12-10T08:50:30.976Z,3.87
2017-12-10T08:52:59.310Z,4.10
2017-12-10T08:55:27.639Z,3.50
2017-12-10T08:57:55.967Z,3.53
2017-12-10T09:00:25.238Z,4.10
2017-12-10T09:02:53.569Z,4.10
2017-12-10T09:05:22.036Z,4.23
2017-12-10T09:07:50.385Z,4.27
2017-12-10T09:10:18.724Z,4.47
2017-12-10T09:12:47.070Z,4.50
2017-12-10T09:15:15.632Z,4.93
2017-12-10T09:17:44.753Z,4.57
2017-12-10T09:20:13.144Z,4.50
2017-12-10T09:22:41.576Z,5.10
2017-12-10T09:25:09.925Z,4.73
2017-12-10T09:27:38.282Z,4.40
2017-12-10T09:30:06.672Z,4.50
2017-12-10T09:32:35.706Z,4.77
2017-12-10T09:35:04.035Z,4.63
2017-12-10T09:37:32.380Z,4.60
2017-12-10T09:40:01.470Z,4.83
2017-12-10T09:42:30.612Z,4.73
2017-12-10T09:44:58.931Z,5.00
2017-12-10T09:47:27.304Z,4.87
2017-12-10T09:49:55.644Z,4.20
2017-12-10T09:52:24.020Z,4.43
2017-12-10T09:54:52.547Z,4.60
2017-12-10T09:57:20.881Z,4.83
2017-12-10T09:59:49.232Z,4.50
2017-12-10T10:02:18.336Z,5.10
2017-12-10T10:04:47.433Z,4.53
2017-12-10T10:07:15.766Z,4.80
2017-12-10T10:09:44.103Z,4.80
2017-12-10T10:12:12.527Z,4.43
2017-12-10T10:14:40.851Z,4.30
2017-12-10T10:17:09.190Z,4.60
2017-12-10T10:19:37.525Z,4.27
2017-12-10T10:22:05.843Z,4.40
2017-12-10T10:24:34.199Z,4.93
2017-12-10T10:27:02.557Z,4.27
2017-12-10T10:29:30.892Z,3.87
2017-12-10T10:31:59.251Z,3.57
2017-12-10T10:34:27.566Z,3.73
2017-12-10T10:36:56.701Z,4.13
2017-12-10T10:39:25.041Z,3.90
2017-12-10T10:41:53.358Z,3.23
2017-12-10T10:44:21.706Z,4.10
2017-12-10T10:46:50.672Z,3.30
2017-12-10T10:49:19.094Z,3.57
2017-12-10T10:51:47.428Z,3.30
2017-12-10T10:54:15.782Z,3.40
2017-12-10T10:56:44.120Z,3.57
2017-12-10T10:59:12.465Z,3.27
2017-12-10T11:01:40.805Z,3.43
2017-12-10T11:04:09.381Z,3.37
2017-12-10T11:06:37.756Z,3.10
2017-12-10T11:09:06.085Z,2.93
2017-12-10T11:11:34.424Z,3.67
2017-12-10T11:14:02.769Z,3.00
2017-12-10T11:16:31.601Z,2.90
2017-12-10T11:18:59.952Z,2.87
2017-12-10T11:21:28.285Z,2.47
2017-12-10T11:23:56.616Z,3.00
2017-12-10T11:26:24.968Z,3.00
2017-12-10T11:28:53.329Z,3.07
2017-12-10T11:31:21.658Z,3.10
2017-12-10T11:33:50.004Z,2.67
2017-12-10T11:36:19.104Z,5.10
2017-12-10T11:38:47.513Z,6.90
2017-12-10T11:41:15.864Z,2.80
2017-12-10T11:43:44.256Z,3.13
2017-12-10T11:46:12.585Z,2.63
2017-12-10T11:48:41.016Z,2.80
2017-12-10T11:51:09.365Z,2.83
2017-12-10T11:53:38.444Z,2.57
2017-12-10T11:56:06.804Z,2.80
2017-12-10T11:58:35.150Z,2.83
2017-12-10T12:01:03.511Z,2.83
2017-12-10T12:03:31.827Z,3.00
2017-12-10T12:06:00.184Z,2.40
2017-12-10T12:08:28.518Z,2.90
2017-12-10T12:10:56.864Z,2.70
2017-12-10T12:13:25.224Z,2.77
2017-12-10T12:15:53.564Z,3.13
2017-12-10T12:18:21.900Z,2.30
2017-12-10T12:20:50.325Z,2.30
2017-12-10T12:23:19.456Z,6.10
2017-12-10T12:25:47.818Z,2.53
2017-12-10T12:28:16.869Z,2.40
2017-12-10T12:30:45.192Z,2.83
2017-12-10T12:33:13.537Z,2.60
2017-12-10T12:35:41.885Z,2.47
2017-12-10T12:38:10.304Z,2.43
2017-12-10T12:40:38.636Z,2.40
2017-12-10T12:43:07.026Z,2.23
2017-12-10T12:45:35.381Z,2.03
2017-12-10T12:48:03.720Z,2.40
2017-12-10T12:50:32.069Z,2.43
2017-12-10T12:53:00.407Z,2.40
2017-12-10T12:55:28.759Z,2.20
2017-12-10T12:57:57.862Z,2.40
2017-12-10T13:00:26.952Z,2.57
2017-12-10T13:02:56.090Z,1.90
2017-12-10T13:05:24.436Z,2.00
2017-12-10T13:07:53.565Z,2.43
2017-12-10T13:10:22.014Z,2.10
2017-12-10T13:12:50.347Z,2.17
2017-12-10T13:15:18.709Z,1.80
2017-12-10T13:17:47.040Z,2.47
2017-12-10T13:20:15.444Z,1.90
2017-12-10T13:22:43.815Z,6.00
2017-12-10T13:25:12.935Z,2.23
2017-12-10T13:27:41.305Z,2.27
2017-12-10T13:30:10.192Z,1.93
2017-12-10T13:32:38.803Z,2.37
2017-12-10T13:35:07.393Z,2.37
2017-12-10T13:37:35.869Z,2.10
2017-12-10T13:40:05.228Z,1.83
2017-12-10T13:42:33.719Z,2.43
2017-12-10T13:45:03.514Z,2.10
2017-12-10T13:47:33.526Z,2.13
2017-12-10T13:50:03.889Z,2.40
2017-12-10T13:52:33.276Z,1.70
2017-12-10T13:55:02.018Z,1.73
2017-12-10T13:57:30.707Z,2.30
2017-12-10T13:59:59.296Z,2.10
2017-12-10T14:02:27.727Z,1.90
2017-12-10T14:04:56.088Z,1.80
2017-12-10T14:07:25.197Z,1.60
2017-12-10T14:09:53.559Z,2.00
2017-12-10T14:12:22.685Z,2.10
2017-12-10T14:14:51.063Z,1.70
2017-12-10T14:17:19.407Z,1.53
2017-12-10T14:19:48.515Z,2.00
2017-12-10T14:22:16.868Z,1.53
2017-12-10T14:24:45.212Z,2.30
2017-12-10T14:27:13.574Z,2.20
2017-12-10T14:29:41.910Z,2.00
2017-12-10T14:32:10.265Z,2.57
2017-12-10T14:34:38.618Z,2.13
2017-12-10T14:37:06.954Z,2.50
2017-12-10T14:39:36.069Z,2.50
2017-12-10T14:42:04.400Z,2.57
2017-12-10T14:44:32.746Z,2.77
2017-12-10T14:47:01.106Z,2.97
2017-12-10T14:49:29.445Z,4.50
2017-12-10T14:51:57.786Z,2.27
2017-12-10T14:54:26.121Z,2.10
2017-12-10T14:56:54.467Z,2.00
2017-12-10T14:59:22.862Z,2.20
2017-12-10T15:01:51.246Z,2.23
2017-12-10T15:04:19.624Z,1.70
2017-12-10T15:06:47.948Z,2.27
2017-12-10T15:09:16.313Z,1.97
2017-12-10T15:11:44.666Z,1.70
2017-12-10T15:14:13.014Z,2.20
2017-12-10T15:16:41.340Z,1.80
2017-12-10T15:19:10.433Z,1.80
2017-12-10T15:21:38.828Z,6.00
2017-12-10T15:24:07.910Z,2.37
2017-12-10T15:26:37.054Z,1.97
2017-12-10T15:29:05.391Z,2.53
2017-12-10T15:31:33.739Z,2.10
2017-12-10T15:34:02.171Z,2.43
2017-12-10T15:36:30.667Z,2.90
2017-12-10T15:38:59.755Z,2.17
2017-12-10T15:41:28.096Z,1.70
2017-12-10T15:43:57.187Z,2.27
2017-12-10T15:46:26.331Z,2.10
2017-12-10T15:48:54.739Z,1.87
2017-12-10T15:51:23.842Z,2.27
2017-12-10T15:53:52.181Z,2.70
2017-12-10T15:56:20.517Z,2.40
2017-12-10T15:58:48.866Z,2.80
2017-12-10T16:01:17.205Z,4.80
2017-12-10T16:03:45.556Z,5.03
2017-12-10T16:06:14.683Z,4.87
2017-12-10T16:08:43.023Z,5.10
2017-12-10T16:11:11.400Z,5.97
2017-12-10T16:13:40.519Z,4.47
2017-12-10T16:16:09.655Z,5.30
2017-12-10T16:18:37.986Z,4.47
2017-12-10T16:21:07.104Z,4.10
2017-12-10T16:23:35.450Z,3.93
2017-12-10T16:26:03.800Z,3.87
2017-12-10T16:28:32.882Z,5.37
2017-12-10T16:31:01.225Z,5.43
2017-12-10T16:33:29.571Z,4.50
2017-12-10T16:35:57.915Z,4.70
2017-12-10T16:38:26.256Z,5.03
2017-12-10T16:40:55.380Z,4.27
2017-12-10T16:43:23.737Z,4.20
2017-12-10T16:45:53.707Z,4.23
2017-12-10T16:48:22.068Z,6.43
2017-12-10T16:50:50.439Z,6.13
2017-12-10T16:53:18.832Z,4.33
2017-12-10T16:55:47.180Z,4.40
2017-12-10T16:58:16.364Z,4.70
2017-12-10T17:00:44.845Z,4.80
2017-12-10T17:03:13.151Z,4.07
2017-12-10T17:05:41.487Z,4.07
2017-12-10T17:08:09.841Z,3.80
2017-12-10T17:10:38.214Z,4.17
2017-12-10T17:13:06.551Z,3.63
2017-12-10T17:15:35.730Z,3.37
2017-12-10T17:18:04.063Z,3.47
2017-12-10T17:20:32.484Z,3.07
2017-12-10T17:23:00.868Z,2.90
2017-12-10T17:25:29.980Z,3.10
2017-12-10T17:27:58.368Z,2.90
2017-12-10T17:30:26.736Z,2.80
2017-12-10T17:32:55.101Z,2.90
2017-12-10T17:35:24.241Z,2.50
2017-12-10T17:37:52.595Z,2.47
2017-12-10T17:40:21.176Z,2.37
2017-12-10T17:42:49.670Z,2.90
2017-12-10T17:45:18.086Z,3.20
2017-12-10T17:47:46.449Z,6.23
2017-12-10T17:50:14.834Z,3.33
2017-12-10T17:52:43.336Z,4.60
2017-12-10T17:55:11.735Z,3.17
2017-12-10T17:57:40.892Z,4.03
2017-12-10T18:00:09.304Z,2.90
2017-12-10T18:02:37.742Z,2.93
2017-12-10T18:05:06.112Z,3.10
2017-12-10T18:07:34.830Z,3.20
2017-12-10T18:10:03.179Z,4.70
2017-12-10T18:12:31.655Z,5.63
2017-12-10T18:15:00.004Z,3.27
2017-12-10T18:17:29.131Z,3.50
2017-12-10T18:19:57.509Z,3.40
2017-12-10T18:22:25.853Z,3.30
2017-12-10T18:24:55.066Z,3.60
2017-12-10T18:27:24.180Z,6.90
2017-12-10T18:29:52.556Z,3.80
2017-12-10T18:32:20.891Z,4.80
2017-12-10T18:34:49.240Z,3.73
2017-12-10T18:37:17.590Z,3.67
2017-12-10T18:39:46.153Z,3.77
2017-12-10T18:42:14.526Z,3.40
2017-12-10T18:44:42.960Z,3.50
2017-12-10T18:47:11.354Z,3.47
2017-12-10T18:49:39.717Z,3.33
2017-12-10T18:52:08.028Z,4.70
2017-12-10T18:54:37.381Z,7.13
2017-12-10T18:57:05.774Z,4.93
2017-12-10T18:59:34.131Z,3.93
2017-12-10T19:02:03.239Z,4.07
2017-12-10T19:04:32.376Z,4.17
2017-12-10T19:07:00.797Z,3.60
2017-12-10T19:09:29.138Z,4.13
2017-12-10T19:11:57.497Z,4.20
2017-12-10T19:14:25.835Z,4.23
2017-12-10T19:16:54.174Z,4.50
2017-12-10T19:19:23.152Z,4.27
2017-12-10T19:21:51.533Z,4.37
2017-12-10T19:24:19.986Z,4.20
2017-12-10T19:26:49.206Z,4.33
2017-12-10T19:29:17.625Z,5.10
2017-12-10T19:31:46.153Z,5.87
2017-12-10T19:34:14.489Z,5.50
2017-12-10T19:36:43.632Z,5.83
2017-12-10T19:39:12.007Z,4.60
2017-12-10T19:41:40.377Z,12.97
2017-12-10T19:44:09.688Z,6.80
2017-12-10T19:46:38.206Z,5.20
2017-12-10T19:49:06.630Z,6.27
2017-12-10T19:51:35.457Z,6.73
2017-12-10T19:54:04.006Z,6.47
2017-12-10T19:56:32.417Z,10.60
2017-12-10T19:59:00.845Z,6.37
2017-12-10T20:01:29.964Z,5.80
2017-12-10T20:04:00.229Z,10.93
2017-12-10T20:06:28.705Z,10.93
2017-12-10T20:08:57.050Z,9.07
2017-12-10T20:11:25.392Z,5.70
2017-12-10T20:13:53.825Z,4.77
2017-12-10T20:16:22.204Z,4.40
2017-12-10T20:18:50.650Z,4.63
2017-12-10T20:21:19.733Z,3.90
2017-12-10T20:23:48.824Z,4.50
2017-12-10T20:26:17.961Z,4.40
2017-12-10T20:28:46.374Z,4.80
2017-12-10T20:31:14.750Z,4.63
2017-12-10T20:33:43.110Z,4.80
2017-12-10T20:36:11.640Z,5.80
2017-12-10T20:38:40.048Z,4.10
2017-12-10T20:41:08.377Z,4.63
2017-12-10T20:43:36.738Z,3.90
2017-12-10T20:46:08.126Z,4.23
2017-12-10T20:48:36.480Z,3.80
2017-12-10T20:51:04.820Z,4.40
2017-12-10T20:53:33.160Z,3.43
2017-12-10T20:56:01.531Z,3.83
2017-12-10T20:58:29.984Z,4.17
2017-12-10T21:00:58.324Z,3.70
2017-12-10T21:03:27.429Z,4.20
2017-12-10T21:05:55.760Z,4.17
2017-12-10T21:08:24.118Z,4.30
2017-12-10T21:10:52.599Z,3.97
2017-12-10T21:13:20.935Z,4.63
2017-12-10T21:15:49.274Z,4.40
2017-12-10T21:18:17.599Z,4.23
2017-12-10T21:20:45.940Z,4.53
2017-12-10T21:23:14.271Z,4.20
2017-12-10T21:25:43.568Z,4.10
2017-12-10T21:28:11.899Z,4.17
2017-12-10T21:30:40.238Z,4.20
2017-12-10T21:33:08.576Z,4.27
2017-12-10T21:35:37.668Z,3.70
2017-12-10T21:38:06.789Z,4.57
2017-12-10T21:40:35.134Z,4.33
2017-12-10T21:43:03.465Z,4.70
2017-12-10T21:45:31.947Z,4.60
2017-12-10T21:48:00.288Z,4.43
2017-12-10T21:50:29.404Z,4.77
2017-12-10T21:52:57.785Z,5.53
2017-12-10T21:55:26.116Z,5.60
2017-12-10T21:57:54.452Z,5.00
2017-12-10T22:00:22.785Z,5.03
2017-12-10T22:02:51.158Z,4.60
2017-12-10T22:05:19.538Z,4.70
2017-12-10T22:07:47.908Z,4.93
2017-12-10T22:10:16.349Z,4.30
2017-12-10T22:12:44.689Z,4.10
2017-12-10T22:15:13.035Z,4.13
2017-12-10T22:17:41.363Z,4.47
2017-12-10T22:20:10.511Z,5.50
2017-12-10T22:22:38.832Z,5.63
2017-12-10T22:25:07.155Z,4.50
2017-12-10T22:27:35.506Z,5.47
2017-12-10T22:30:03.876Z,5.13
2017-12-10T22:32:32.935Z,4.50
2017-12-10T22:35:01.371Z,3.97
2017-12-10T22:37:29.738Z,4.33
2017-12-10T22:39:58.115Z,4.07
2017-12-10T22:42:27.629Z,2.97
2017-12-10T22:44:58.751Z,3.40
2017-12-10T22:47:27.593Z,3.20
2017-12-10T22:49:56.038Z,3.00
2017-12-10T22:52:24.381Z,3.53
2017-12-10T22:54:53.464Z,3.23
2017-12-10T22:57:22.396Z,3.50
2017-12-10T22:59:50.782Z,4.00
2017-12-10T23:02:19.153Z,3.33
2017-12-10T23:04:47.550Z,2.43
2017-12-10T23:07:16.119Z,2.67
2017-12-10T23:09:44.527Z,2.10
2017-12-10T23:12:12.847Z,1.90
2017-12-10T23:14:41.212Z,1.87
2017-12-10T23:17:09.626Z,2.40
2017-12-10T23:19:38.709Z,1.87
2017-12-10T23:22:07.107Z,1.80
2017-12-10T23:24:35.565Z,2.47
2017-12-10T23:27:04.676Z,1.40
2017-12-10T23:29:33.777Z,1.37
2017-12-10T23:32:02.868Z,1.07
2017-12-10T23:34:31.959Z,1.10
2017-12-10T23:37:01.050Z,1.60
2017-12-10T23:39:30.272Z,1.50
2017-12-10T23:41:58.659Z,1.10
2017-12-10T23:44:26.981Z,1.50
2017-12-10T23:46:55.361Z,1.17
2017-12-10T23:49:23.687Z,1.13
2017-12-10T23:51:52.160Z,1.50
2017-12-10T23:54:20.479Z,1.20
2017-12-10T23:56:48.816Z,1.70
2017-12-10T23:59:17.903Z,1.40
